createdAt,value
2018-09-09T00:00:36.789Z,0
2018-09-09T00:01:17.341Z,0
2018-09-09T00:01:57.740Z,0
2018-09-09T00:02:38.138Z,0
2018-09-09T00:03:18.534Z,0
2018-09-09T00:03:58.906Z,0
2018-09-09T00:04:39.331Z,0
2018-09-09T00:05:19.738Z,0
2018-09-09T00:06:00.109Z,0
2018-09-09T00:06:40.483Z,0
2018-09-09T00:07:20.928Z,0
2018-09-09T00:08:01.344Z,0
2018-09-09T00:08:41.768Z,0
2018-09-09T00:09:22.144Z,0
2018-09-09T00:10:02.583Z,0
2018-09-09T00:10:42.947Z,0
2018-09-09T00:11:23.369Z,0
2018-09-09T00:12:03.768Z,0
2018-09-09T00:12:44.171Z,0
2018-09-09T00:13:24.562Z,0
2018-09-09T00:14:04.937Z,0
2018-09-09T00:14:45.373Z,0
2018-09-09T00:15:25.772Z,0
2018-09-09T00:16:06.130Z,0
2018-09-09T00:16:46.580Z,0
2018-09-09T00:17:26.948Z,0
2018-09-09T00:18:07.391Z,0
2018-09-09T00:18:47.723Z,0
2018-09-09T00:19:28.176Z,0
2018-09-09T00:20:08.544Z,0
2018-09-09T00:20:48.962Z,0
2018-09-09T00:21:29.364Z,0
2018-09-09T00:22:09.848Z,0
2018-09-09T00:22:50.207Z,0
2018-09-09T00:23:30.557Z,0
2018-09-09T00:24:11.060Z,0
2018-09-09T00:24:51.397Z,0
2018-09-09T00:25:31.802Z,0
2018-09-09T00:26:12.197Z,0
2018-09-09T00:26:52.642Z,0
2018-09-09T00:27:33.061Z,0
2018-09-09T00:28:13.466Z,0
2018-09-09T00:28:53.860Z,0
2018-09-09T00:29:34.293Z,0
2018-09-09T00:30:14.683Z,0
2018-09-09T00:30:55.091Z,0
2018-09-09T00:31:35.506Z,0
2018-09-09T00:32:15.913Z,0
2018-09-09T00:32:56.316Z,0
2018-09-09T00:33:36.677Z,0
2018-09-09T00:34:17.057Z,0
2018-09-09T00:34:57.459Z,0
2018-09-09T00:35:37.830Z,0
2018-09-09T00:36:18.348Z,0
2018-09-09T00:36:58.715Z,0
2018-09-09T00:37:39.086Z,0
2018-09-09T00:38:19.433Z,0
2018-09-09T00:38:59.855Z,0
2018-09-09T00:39:40.310Z,0
2018-09-09T00:40:20.657Z,0
2018-09-09T00:41:01.127Z,0
2018-09-09T00:41:41.482Z,0
2018-09-09T00:42:21.895Z,0
2018-09-09T00:43:02.324Z,0
2018-09-09T00:43:42.757Z,0
2018-09-09T00:44:23.123Z,0
2018-09-09T00:45:03.553Z,0
2018-09-09T00:45:43.940Z,0
2018-09-09T00:46:24.349Z,0
2018-09-09T00:47:04.678Z,0
2018-09-09T00:47:45.099Z,0
2018-09-09T00:48:25.473Z,0
2018-09-09T00:49:05.945Z,0
2018-09-09T00:49:46.347Z,0
2018-09-09T00:50:26.762Z,0
2018-09-09T00:51:07.175Z,0
2018-09-09T00:51:47.522Z,0
2018-09-09T00:52:27.938Z,0
2018-09-09T00:53:08.336Z,0
2018-09-09T00:53:48.718Z,0
2018-09-09T00:54:29.161Z,0
2018-09-09T00:55:09.542Z,0
2018-09-09T00:55:49.900Z,0
2018-09-09T00:56:30.259Z,0
2018-09-09T00:57:10.672Z,0
2018-09-09T00:57:51.097Z,0
2018-09-09T00:58:31.510Z,0
2018-09-09T00:59:11.934Z,0
2018-09-09T00:59:52.448Z,0
2018-09-09T01:00:32.765Z,0
2018-09-09T01:01:13.164Z,0
2018-09-09T01:01:53.528Z,0
2018-09-09T01:02:33.909Z,0
2018-09-09T01:03:14.393Z,0
2018-09-09T01:03:54.726Z,0
2018-09-09T01:04:35.158Z,0
2018-09-09T01:05:15.542Z,0
2018-09-09T01:05:55.895Z,0
2018-09-09T01:06:36.328Z,0
2018-09-09T01:07:16.879Z,0
2018-09-09T01:07:57.203Z,0
2018-09-09T01:08:37.655Z,0
2018-09-09T01:09:18.070Z,0
2018-09-09T01:09:58.522Z,0
2018-09-09T01:10:38.901Z,0
2018-09-09T01:11:19.259Z,0
2018-09-09T01:11:59.702Z,0
2018-09-09T01:12:40.142Z,0
2018-09-09T01:13:20.554Z,0
2018-09-09T01:14:00.955Z,0
2018-09-09T01:14:41.325Z,0
2018-09-09T01:15:21.769Z,0
2018-09-09T01:16:02.170Z,0
2018-09-09T01:16:42.528Z,0
2018-09-09T01:17:23.036Z,0
2018-09-09T01:18:03.385Z,0
2018-09-09T01:18:43.774Z,0
2018-09-09T01:19:24.174Z,0
2018-09-09T01:20:04.569Z,0
2018-09-09T01:20:44.964Z,0
2018-09-09T01:21:25.316Z,0
2018-09-09T01:22:05.716Z,0
2018-09-09T01:22:46.159Z,0
2018-09-09T01:23:26.465Z,0
2018-09-09T01:24:06.890Z,0
2018-09-09T01:24:47.245Z,0
2018-09-09T01:25:27.755Z,0
2018-09-09T01:26:08.160Z,0
2018-09-09T01:26:48.566Z,0
2018-09-09T01:27:28.936Z,0
2018-09-09T01:28:09.357Z,0
2018-09-09T01:28:49.761Z,0
2018-09-09T01:29:30.161Z,0
2018-09-09T01:30:10.580Z,0
2018-09-09T01:30:50.970Z,0
2018-09-09T01:31:31.377Z,0
2018-09-09T01:32:11.760Z,0
2018-09-09T01:32:52.147Z,0
2018-09-09T01:33:32.544Z,0
2018-09-09T01:34:12.913Z,0
2018-09-09T01:34:53.348Z,0
2018-09-09T01:35:33.757Z,0
2018-09-09T01:36:14.169Z,0
2018-09-09T01:36:54.586Z,0
2018-09-09T01:37:35.073Z,0
2018-09-09T01:38:15.465Z,0
2018-09-09T01:38:55.865Z,0
2018-09-09T01:39:36.242Z,0
2018-09-09T01:40:16.680Z,0
2018-09-09T01:40:57.092Z,0
2018-09-09T01:41:37.507Z,0
2018-09-09T01:42:17.816Z,0
2018-09-09T01:42:58.290Z,0
2018-09-09T01:43:38.680Z,0
2018-09-09T01:44:19.102Z,0
2018-09-09T01:44:59.453Z,0
2018-09-09T01:45:39.899Z,0
2018-09-09T01:46:20.291Z,0
2018-09-09T01:47:00.667Z,0
2018-09-09T01:47:41.044Z,0
2018-09-09T01:48:21.468Z,0
2018-09-09T01:49:01.878Z,0
2018-09-09T01:49:42.272Z,0
2018-09-09T01:50:22.630Z,0
2018-09-09T01:51:03.046Z,0
2018-09-09T01:51:43.452Z,0
2018-09-09T01:52:23.883Z,0
2018-09-09T01:53:04.232Z,0
2018-09-09T01:53:44.618Z,0
2018-09-09T01:54:25.006Z,0
2018-09-09T01:55:05.413Z,0
2018-09-09T01:55:45.840Z,0
2018-09-09T01:56:26.235Z,0
2018-09-09T01:57:06.597Z,0
2018-09-09T01:57:47.025Z,0
2018-09-09T01:58:27.332Z,0
2018-09-09T01:59:07.764Z,0
2018-09-09T01:59:48.211Z,0
2018-09-09T02:00:28.601Z,0
2018-09-09T02:01:09.023Z,0
2018-09-09T02:01:49.305Z,0
2018-09-09T02:02:29.690Z,0
2018-09-09T02:03:10.104Z,0
2018-09-09T02:03:50.541Z,0
2018-09-09T02:04:30.906Z,0
2018-09-09T02:05:11.372Z,0
2018-09-09T02:05:51.750Z,0
2018-09-09T02:06:32.279Z,0
2018-09-09T02:07:12.608Z,0
2018-09-09T02:07:53.022Z,0
2018-09-09T02:08:33.442Z,0
2018-09-09T02:09:13.787Z,0
2018-09-09T02:09:54.137Z,0
2018-09-09T02:10:34.549Z,0
2018-09-09T02:11:14.999Z,0
2018-09-09T02:11:55.408Z,0
2018-09-09T02:12:35.813Z,0
2018-09-09T02:13:16.154Z,0
2018-09-09T02:13:56.600Z,0
2018-09-09T02:14:37.016Z,0
2018-09-09T02:15:17.451Z,0
2018-09-09T02:15:57.772Z,0
2018-09-09T02:16:38.259Z,0
2018-09-09T02:17:18.749Z,0
2018-09-09T02:17:59.065Z,0
2018-09-09T02:18:39.524Z,0
2018-09-09T02:19:19.940Z,0
2018-09-09T02:20:00.271Z,0
2018-09-09T02:20:40.645Z,0
2018-09-09T02:21:21.081Z,0
2018-09-09T02:22:01.462Z,0
2018-09-09T02:22:41.859Z,0
2018-09-09T02:23:22.306Z,0
2018-09-09T02:24:02.709Z,0
2018-09-09T02:24:43.158Z,0
2018-09-09T02:25:23.469Z,0
2018-09-09T02:26:03.869Z,0
2018-09-09T02:26:44.314Z,0
2018-09-09T02:27:24.644Z,0
2018-09-09T02:28:05.122Z,0
2018-09-09T02:28:45.523Z,0
2018-09-09T02:29:25.944Z,0
2018-09-09T02:30:06.319Z,0
2018-09-09T02:30:46.680Z,0
2018-09-09T02:31:27.131Z,0
2018-09-09T02:32:07.542Z,0
2018-09-09T02:32:47.864Z,0
2018-09-09T02:33:28.347Z,0
2018-09-09T02:34:08.772Z,0
2018-09-09T02:34:49.153Z,0
2018-09-09T02:35:29.660Z,0
2018-09-09T02:36:09.979Z,0
2018-09-09T02:36:50.345Z,0
2018-09-09T02:37:30.860Z,0
2018-09-09T02:38:11.251Z,0
2018-09-09T02:38:51.680Z,0
2018-09-09T02:39:32.067Z,0
2018-09-09T02:40:12.445Z,0
2018-09-09T02:40:52.903Z,0
2018-09-09T02:41:33.257Z,0
2018-09-09T02:42:13.689Z,0
2018-09-09T02:42:54.069Z,0
2018-09-09T02:43:34.558Z,0
2018-09-09T02:44:14.910Z,0
2018-09-09T02:44:55.277Z,0
2018-09-09T02:45:35.685Z,0
2018-09-09T02:46:16.115Z,0
2018-09-09T02:46:56.436Z,0
2018-09-09T02:47:36.821Z,0
2018-09-09T02:48:17.313Z,0
2018-09-09T02:48:57.679Z,0
2018-09-09T02:49:38.162Z,0
2018-09-09T02:50:18.551Z,0
2018-09-09T02:50:58.908Z,0
2018-09-09T02:51:39.383Z,0
2018-09-09T02:52:19.708Z,0
2018-09-09T02:53:00.210Z,0
2018-09-09T02:53:40.542Z,0
2018-09-09T02:54:21.007Z,0
2018-09-09T02:55:01.316Z,0
2018-09-09T02:55:41.715Z,0
2018-09-09T02:56:22.220Z,0
2018-09-09T02:57:02.563Z,0
2018-09-09T02:57:42.973Z,0
2018-09-09T02:58:23.376Z,0
2018-09-09T02:59:03.710Z,0
2018-09-09T02:59:44.121Z,0
2018-09-09T03:00:24.531Z,0
2018-09-09T03:01:04.925Z,0
2018-09-09T03:01:45.417Z,0
2018-09-09T03:02:25.749Z,0
2018-09-09T03:03:06.164Z,0
2018-09-09T03:03:46.552Z,0
2018-09-09T03:04:26.920Z,0
2018-09-09T03:05:07.378Z,0
2018-09-09T03:05:47.803Z,0
2018-09-09T03:06:28.197Z,0
2018-09-09T03:07:08.616Z,0
2018-09-09T03:07:49.023Z,0
2018-09-09T03:08:29.402Z,0
2018-09-09T03:09:09.794Z,0
2018-09-09T03:09:50.191Z,0
2018-09-09T03:10:30.557Z,0
2018-09-09T03:11:10.991Z,0
2018-09-09T03:11:51.367Z,0
2018-09-09T03:12:31.738Z,0
2018-09-09T03:13:12.143Z,0
2018-09-09T03:13:52.567Z,0
2018-09-09T03:14:32.959Z,0
2018-09-09T03:15:13.355Z,0
2018-09-09T03:15:53.728Z,0
2018-09-09T03:16:34.216Z,0
2018-09-09T03:17:14.530Z,0
2018-09-09T03:17:54.942Z,0
2018-09-09T03:18:35.350Z,0
2018-09-09T03:19:15.704Z,0
2018-09-09T03:19:56.170Z,0
2018-09-09T03:20:36.564Z,0
2018-09-09T03:21:16.953Z,0
2018-09-09T03:21:57.362Z,0
2018-09-09T03:22:37.763Z,0
2018-09-09T03:23:18.186Z,0
2018-09-09T03:23:58.564Z,0
2018-09-09T03:24:38.976Z,0
2018-09-09T03:25:19.369Z,0
2018-09-09T03:25:59.753Z,0
2018-09-09T03:26:40.141Z,0
2018-09-09T03:27:20.534Z,0
2018-09-09T03:28:01.021Z,0
2018-09-09T03:28:41.444Z,0
2018-09-09T03:29:21.815Z,0
2018-09-09T03:30:02.206Z,0
2018-09-09T03:30:42.576Z,0
2018-09-09T03:31:23.072Z,0
2018-09-09T03:32:03.510Z,0
2018-09-09T03:32:43.898Z,0
2018-09-09T03:33:24.311Z,0
2018-09-09T03:34:04.703Z,0
2018-09-09T03:34:45.121Z,0
2018-09-09T03:35:25.520Z,0
2018-09-09T03:36:05.868Z,0
2018-09-09T03:36:46.326Z,0
2018-09-09T03:37:26.680Z,0
2018-09-09T03:38:07.078Z,0
2018-09-09T03:38:47.507Z,0
2018-09-09T03:39:27.910Z,0
2018-09-09T03:40:08.310Z,0
2018-09-09T03:40:48.686Z,0
2018-09-09T03:41:29.094Z,0
2018-09-09T03:42:09.435Z,0
2018-09-09T03:42:49.926Z,0
2018-09-09T03:43:30.287Z,0
2018-09-09T03:44:10.755Z,0
2018-09-09T03:44:51.054Z,0
2018-09-09T03:45:31.486Z,0
2018-09-09T03:46:11.850Z,0
2018-09-09T03:46:52.298Z,0
2018-09-09T03:47:32.694Z,0
2018-09-09T03:48:13.029Z,0
2018-09-09T03:48:53.443Z,0
2018-09-09T03:49:33.851Z,0
2018-09-09T03:50:14.266Z,0
2018-09-09T03:50:54.597Z,0
2018-09-09T03:51:35.032Z,0
2018-09-09T03:52:15.472Z,0
2018-09-09T03:52:55.801Z,0
2018-09-09T03:53:36.210Z,0
2018-09-09T03:54:16.623Z,0
2018-09-09T03:54:57.034Z,0
2018-09-09T03:55:37.428Z,0
2018-09-09T03:56:17.794Z,0
2018-09-09T03:56:58.264Z,0
2018-09-09T03:57:38.642Z,0
2018-09-09T03:58:19.043Z,0
2018-09-09T03:58:59.505Z,0
2018-09-09T03:59:39.907Z,0
2018-09-09T04:00:20.240Z,0
2018-09-09T04:01:00.729Z,0
2018-09-09T04:01:41.106Z,0
2018-09-09T04:02:21.474Z,0
2018-09-09T04:03:01.922Z,0
2018-09-09T04:03:42.342Z,0
2018-09-09T04:04:22.735Z,0
2018-09-09T04:05:03.147Z,0
2018-09-09T04:05:43.540Z,0
2018-09-09T04:06:23.986Z,0
2018-09-09T04:07:04.362Z,0
2018-09-09T04:07:44.746Z,0
2018-09-09T04:08:25.136Z,0
2018-09-09T04:09:05.558Z,0
2018-09-09T04:09:45.927Z,0
2018-09-09T04:10:26.391Z,0
2018-09-09T04:11:06.805Z,0
2018-09-09T04:11:47.196Z,0
2018-09-09T04:12:27.540Z,0
2018-09-09T04:13:07.902Z,0
2018-09-09T04:13:48.385Z,0
2018-09-09T04:14:28.827Z,0
2018-09-09T04:15:09.247Z,0
2018-09-09T04:15:49.671Z,0
2018-09-09T04:16:30.029Z,0
2018-09-09T04:17:10.459Z,0
2018-09-09T04:17:50.929Z,0
2018-09-09T04:18:31.231Z,0
2018-09-09T04:19:11.577Z,0
2018-09-09T04:19:52.052Z,0
2018-09-09T04:20:32.442Z,0
2018-09-09T04:21:12.845Z,0
2018-09-09T04:21:53.204Z,0
2018-09-09T04:22:33.668Z,0
2018-09-09T04:23:14.004Z,0
2018-09-09T04:23:54.486Z,0
2018-09-09T04:24:34.881Z,0
2018-09-09T04:25:15.310Z,0
2018-09-09T04:25:55.698Z,0
2018-09-09T04:26:36.076Z,0
2018-09-09T04:27:16.463Z,0
2018-09-09T05:07:01.380Z,0
2018-09-09T05:07:53.212Z,0
2018-09-09T05:08:45.017Z,0
2018-09-09T05:09:37.643Z,0
2018-09-09T05:10:29.100Z,0
2018-09-09T05:11:20.274Z,0
2018-09-09T05:13:47.467Z,0
2018-09-09T05:14:39.465Z,0
2018-09-09T05:15:31.810Z,0
2018-09-09T05:16:23.901Z,0
2018-09-09T05:17:16.110Z,5
2018-09-09T05:18:07.819Z,5
2018-09-09T05:19:00.501Z,5
2018-09-09T05:19:52.964Z,5
2018-09-09T05:20:45.474Z,5
2018-09-09T05:21:38.046Z,5
2018-09-09T05:22:30.370Z,5
2018-09-09T05:23:22.959Z,10
2018-09-09T05:24:15.173Z,10
2018-09-09T05:25:07.387Z,10
2018-09-09T05:25:59.934Z,10
2018-09-09T05:26:52.316Z,10
2018-09-09T05:27:44.920Z,10
2018-09-09T05:28:37.662Z,15
2018-09-09T05:29:30.033Z,15
2018-09-09T05:30:22.068Z,15
2018-09-09T05:31:05.674Z,15
2018-09-09T05:31:46.094Z,20
2018-09-09T05:32:26.511Z,20
2018-09-09T05:33:06.935Z,20
2018-09-09T05:33:47.311Z,20
2018-09-09T05:34:27.745Z,20
2018-09-09T05:35:08.126Z,25
2018-09-09T05:35:48.477Z,25
2018-09-09T05:36:28.940Z,25
2018-09-09T05:37:09.353Z,25
2018-09-09T05:37:49.755Z,25
2018-09-09T05:38:30.166Z,25
2018-09-09T05:39:10.558Z,25
2018-09-09T05:39:50.939Z,25
2018-09-09T05:40:31.386Z,30
2018-09-09T05:41:11.702Z,30
2018-09-09T05:41:52.196Z,30
2018-09-09T05:42:32.534Z,35
2018-09-09T05:43:12.960Z,35
2018-09-09T05:43:53.379Z,35
2018-09-09T05:44:33.778Z,40
2018-09-09T05:45:14.166Z,40
2018-09-09T05:45:54.556Z,50
2018-09-09T05:46:34.944Z,50
2018-09-09T05:47:15.289Z,55
2018-09-09T05:47:55.686Z,55
2018-09-09T05:48:36.105Z,45
2018-09-09T05:49:16.430Z,45
2018-09-09T05:49:56.883Z,45
2018-09-09T05:50:37.261Z,45
2018-09-09T05:51:17.693Z,50
2018-09-09T05:51:58.073Z,55
2018-09-09T05:52:38.572Z,70
2018-09-09T05:53:18.936Z,85
2018-09-09T05:53:59.377Z,90
2018-09-09T05:54:39.709Z,100
2018-09-09T05:55:20.117Z,95
2018-09-09T05:56:00.507Z,105
2018-09-09T05:56:40.874Z,95
2018-09-09T05:57:21.286Z,80
2018-09-09T05:58:01.737Z,65
2018-09-09T05:58:42.083Z,55
2018-09-09T05:59:22.513Z,45
2018-09-09T06:00:02.882Z,40
2018-09-09T06:00:43.291Z,35
2018-09-09T06:01:23.664Z,35
2018-09-09T06:02:04.088Z,40
2018-09-09T06:02:44.526Z,35
2018-09-09T06:03:24.884Z,30
2018-09-09T06:04:05.351Z,25
2018-09-09T06:04:45.696Z,25
2018-09-09T06:05:26.074Z,30
2018-09-09T06:06:06.461Z,30
2018-09-09T06:06:46.849Z,35
2018-09-09T06:07:27.236Z,45
2018-09-09T06:08:07.628Z,45
2018-09-09T06:08:48.040Z,30
2018-09-09T06:09:28.425Z,25
2018-09-09T06:10:08.850Z,20
2018-09-09T06:10:49.236Z,20
2018-09-09T06:11:29.629Z,20
2018-09-09T06:12:10.093Z,20
2018-09-09T06:12:50.502Z,20
2018-09-09T06:13:30.894Z,20
2018-09-09T06:14:11.270Z,20
2018-09-09T06:14:51.724Z,20
2018-09-09T06:15:32.095Z,20
2018-09-09T06:16:12.506Z,20
2018-09-09T06:16:52.895Z,20
2018-09-09T06:17:33.329Z,20
2018-09-09T06:18:13.728Z,20
2018-09-09T06:18:54.120Z,20
2018-09-09T06:19:34.556Z,20
2018-09-09T06:20:14.942Z,20
2018-09-09T06:20:55.303Z,25
2018-09-09T06:21:35.791Z,25
2018-09-09T06:22:16.203Z,25
2018-09-09T06:22:56.575Z,25
2018-09-09T06:23:37.030Z,30
2018-09-09T06:24:17.423Z,30
2018-09-09T06:24:57.855Z,35
2018-09-09T06:25:38.251Z,45
2018-09-09T06:26:18.655Z,55
2018-09-09T06:26:59.051Z,60
2018-09-09T06:27:39.440Z,75
2018-09-09T06:28:19.925Z,75
2018-09-09T06:29:00.211Z,75
2018-09-09T06:29:40.622Z,70
2018-09-09T06:30:21.026Z,65
2018-09-09T06:31:01.449Z,60
2018-09-09T06:31:41.771Z,55
2018-09-09T06:32:22.160Z,45
2018-09-09T06:33:02.612Z,35
2018-09-09T06:33:43.151Z,35
2018-09-09T06:34:23.435Z,35
2018-09-09T06:35:03.857Z,35
2018-09-09T06:35:44.230Z,35
2018-09-09T06:36:24.659Z,35
2018-09-09T06:37:05.065Z,35
2018-09-09T06:37:45.439Z,35
2018-09-09T06:38:25.820Z,40
2018-09-09T06:39:06.331Z,40
2018-09-09T06:39:46.598Z,40
2018-09-09T06:40:27.056Z,40
2018-09-09T06:41:07.467Z,40
2018-09-09T06:41:47.887Z,45
2018-09-09T06:42:28.279Z,45
2018-09-09T06:43:08.682Z,45
2018-09-09T06:43:49.078Z,50
2018-09-09T06:44:29.448Z,50
2018-09-09T06:45:09.844Z,55
2018-09-09T06:45:50.236Z,60
2018-09-09T06:46:30.725Z,55
2018-09-09T06:47:11.062Z,60
2018-09-09T06:47:51.447Z,60
2018-09-09T06:48:31.885Z,65
2018-09-09T06:49:12.288Z,70
2018-09-09T06:49:52.747Z,70
2018-09-09T06:50:33.077Z,75
2018-09-09T06:51:13.522Z,75
2018-09-09T06:51:53.823Z,75
2018-09-09T06:52:34.256Z,80
2018-09-09T06:53:14.648Z,85
2018-09-09T06:53:55.078Z,100
2018-09-09T06:54:35.436Z,135
2018-09-09T06:55:15.898Z,155
2018-09-09T06:55:56.261Z,175
2018-09-09T06:56:36.670Z,195
2018-09-09T06:57:17.078Z,200
2018-09-09T06:57:57.480Z,195
2018-09-09T06:58:37.888Z,195
2018-09-09T06:59:18.256Z,210
2018-09-09T06:59:58.670Z,210
2018-09-09T07:00:39.089Z,210
2018-09-09T07:01:19.408Z,215
2018-09-09T07:01:59.828Z,220
2018-09-09T07:02:40.220Z,185
2018-09-09T07:03:20.732Z,150
2018-09-09T07:04:01.140Z,135
2018-09-09T07:04:41.582Z,125
2018-09-09T07:05:21.968Z,120
2018-09-09T07:06:02.341Z,115
2018-09-09T07:06:42.766Z,100
2018-09-09T07:07:23.198Z,95
2018-09-09T07:08:03.562Z,90
2018-09-09T07:08:44.054Z,80
2018-09-09T07:09:24.498Z,75
2018-09-09T07:10:04.924Z,70
2018-09-09T07:10:45.351Z,65
2018-09-09T07:11:25.818Z,65
2018-09-09T07:12:06.194Z,65
2018-09-09T07:12:46.540Z,65
2018-09-09T07:13:26.998Z,65
2018-09-09T07:14:07.388Z,70
2018-09-09T07:14:47.823Z,70
2018-09-09T07:15:28.170Z,75
2018-09-09T07:16:08.505Z,80
2018-09-09T07:16:48.938Z,80
2018-09-09T07:17:29.348Z,85
2018-09-09T07:18:09.772Z,90
2018-09-09T07:18:50.216Z,95
2018-09-09T07:19:30.626Z,105
2018-09-09T07:20:11.044Z,110
2018-09-09T07:20:51.494Z,115
2018-09-09T07:21:31.836Z,115
2018-09-09T07:22:12.249Z,115
2018-09-09T07:22:52.623Z,125
2018-09-09T07:23:33.066Z,125
2018-09-09T07:24:13.424Z,130
2018-09-09T07:24:53.909Z,135
2018-09-09T07:25:34.291Z,140
2018-09-09T07:26:14.754Z,140
2018-09-09T07:26:55.110Z,130
2018-09-09T07:27:35.531Z,130
2018-09-09T07:28:15.983Z,130
2018-09-09T07:28:56.340Z,125
2018-09-09T07:29:36.768Z,125
2018-09-09T07:30:17.205Z,130
2018-09-09T07:30:57.605Z,130
2018-09-09T07:31:37.949Z,135
2018-09-09T07:32:18.384Z,130
2018-09-09T07:32:58.817Z,130
2018-09-09T07:33:39.175Z,135
2018-09-09T07:34:19.676Z,135
2018-09-09T07:35:00.016Z,140
2018-09-09T07:35:40.378Z,145
2018-09-09T07:36:20.724Z,150
2018-09-09T07:37:01.180Z,160
2018-09-09T07:37:41.610Z,160
2018-09-09T07:38:21.974Z,165
2018-09-09T07:39:02.449Z,145
2018-09-09T07:39:42.868Z,115
2018-09-09T07:40:23.270Z,120
2018-09-09T07:41:03.761Z,140
2018-09-09T07:41:44.081Z,130
2018-09-09T07:42:24.473Z,150
2018-09-09T07:43:04.880Z,130
2018-09-09T07:43:45.284Z,125
2018-09-09T07:44:25.695Z,110
2018-09-09T07:45:06.158Z,105
2018-09-09T07:45:46.554Z,105
2018-09-09T07:46:27.042Z,105
2018-09-09T07:47:07.352Z,110
2018-09-09T07:47:47.727Z,120
2018-09-09T07:48:28.127Z,130
2018-09-09T07:49:08.551Z,130
2018-09-09T07:49:48.949Z,130
2018-09-09T07:50:29.445Z,130
2018-09-09T07:51:09.747Z,130
2018-09-09T07:51:50.126Z,125
2018-09-09T07:52:30.582Z,125
2018-09-09T07:53:10.975Z,125
2018-09-09T07:53:51.415Z,115
2018-09-09T07:54:31.843Z,130
2018-09-09T07:55:12.289Z,135
2018-09-09T07:55:52.691Z,120
2018-09-09T07:56:33.076Z,130
2018-09-09T07:57:13.486Z,135
2018-09-09T07:57:53.884Z,130
2018-09-09T07:58:34.316Z,135
2018-09-09T07:59:14.643Z,140
2018-09-09T07:59:55.098Z,140
2018-09-09T08:00:35.536Z,140
2018-09-09T08:01:15.870Z,130
2018-09-09T08:01:56.328Z,130
2018-09-09T08:02:36.754Z,130
2018-09-09T08:03:17.122Z,130
2018-09-09T08:03:57.574Z,130
2018-09-09T08:04:37.969Z,120
2018-09-09T08:05:18.337Z,115
2018-09-09T08:05:58.760Z,110
2018-09-09T08:06:39.208Z,115
2018-09-09T08:07:19.552Z,110
2018-09-09T08:07:59.932Z,115
2018-09-09T08:08:40.396Z,125
2018-09-09T08:09:20.795Z,110
2018-09-09T08:10:01.200Z,110
2018-09-09T08:10:41.608Z,105
2018-09-09T08:11:22.024Z,105
2018-09-09T08:12:02.481Z,105
2018-09-09T08:12:42.855Z,105
2018-09-09T08:13:23.272Z,105
2018-09-09T08:14:03.702Z,105
2018-09-09T08:14:44.097Z,115
2018-09-09T08:15:24.571Z,110
2018-09-09T08:16:05.103Z,125
2018-09-09T08:16:45.508Z,110
2018-09-09T08:17:25.850Z,105
2018-09-09T08:18:06.262Z,105
2018-09-09T08:18:46.658Z,105
2018-09-09T08:19:27.129Z,105
2018-09-09T08:20:07.551Z,105
2018-09-09T08:20:47.969Z,105
2018-09-09T08:21:28.397Z,105
2018-09-09T08:22:08.814Z,100
2018-09-09T08:22:49.232Z,100
2018-09-09T08:23:29.708Z,105
2018-09-09T08:24:10.010Z,105
2018-09-09T08:24:50.481Z,100
2018-09-09T08:25:30.867Z,100
2018-09-09T08:26:11.355Z,100
2018-09-09T08:26:51.793Z,95
2018-09-09T08:27:32.143Z,95
2018-09-09T08:28:12.656Z,95
2018-09-09T08:28:53.012Z,95
2018-09-09T08:29:33.453Z,90
2018-09-09T08:30:13.858Z,90
2018-09-09T08:30:54.230Z,90
2018-09-09T08:31:34.661Z,90
2018-09-09T08:32:15.048Z,90
2018-09-09T08:32:55.448Z,90
2018-09-09T08:33:35.878Z,85
2018-09-09T08:34:16.262Z,85
2018-09-09T08:34:56.724Z,85
2018-09-09T08:35:37.085Z,85
2018-09-09T08:36:17.534Z,85
2018-09-09T08:36:57.922Z,85
2018-09-09T08:37:38.353Z,85
2018-09-09T08:38:18.857Z,85
2018-09-09T08:38:59.260Z,85
2018-09-09T08:39:39.705Z,80
2018-09-09T08:40:20.184Z,80
2018-09-09T08:41:00.580Z,80
2018-09-09T08:41:40.978Z,80
2018-09-09T08:42:21.425Z,80
2018-09-09T08:43:01.755Z,85
2018-09-09T08:43:42.203Z,80
2018-09-09T08:44:22.592Z,80
2018-09-09T08:45:03.072Z,80
2018-09-09T08:45:43.429Z,80
2018-09-09T08:46:23.880Z,80
2018-09-09T08:47:04.245Z,85
2018-09-09T08:47:44.656Z,85
2018-09-09T08:48:25.065Z,85
2018-09-09T08:49:05.516Z,85
2018-09-09T08:49:45.934Z,85
2018-09-09T08:50:26.325Z,90
2018-09-09T08:51:06.726Z,90
2018-09-09T08:51:47.244Z,90
2018-09-09T08:52:27.533Z,90
2018-09-09T08:53:07.941Z,90
2018-09-09T08:53:48.366Z,90
2018-09-09T08:54:28.768Z,90
2018-09-09T08:55:09.129Z,90
2018-09-09T08:55:49.562Z,90
2018-09-09T08:56:30.075Z,90
2018-09-09T08:57:10.521Z,90
2018-09-09T08:57:50.873Z,90
2018-09-09T08:58:31.270Z,95
2018-09-09T08:59:11.726Z,90
2018-09-09T08:59:52.253Z,90
2018-09-09T09:00:32.536Z,90
2018-09-09T09:01:12.954Z,90
2018-09-09T09:01:53.388Z,90
2018-09-09T09:02:33.782Z,90
2018-09-09T09:03:14.215Z,90
2018-09-09T09:03:54.630Z,90
2018-09-09T09:04:35.046Z,90
2018-09-09T09:05:15.408Z,90
2018-09-09T09:05:55.831Z,90
2018-09-09T09:06:36.264Z,90
2018-09-09T09:07:16.700Z,90
2018-09-09T09:07:57.272Z,90
2018-09-09T09:08:37.498Z,90
2018-09-09T09:09:17.920Z,85
2018-09-09T09:09:58.317Z,90
2018-09-09T09:10:38.749Z,90
2018-09-09T09:11:19.197Z,90
2018-09-09T09:11:59.584Z,85
2018-09-09T09:12:40.036Z,85
2018-09-09T09:13:20.449Z,85
2018-09-09T09:14:00.827Z,85
2018-09-09T09:14:41.358Z,85
2018-09-09T09:15:21.736Z,85
2018-09-09T09:16:02.083Z,85
2018-09-09T09:16:42.701Z,85
2018-09-09T09:17:23.065Z,85
2018-09-09T09:18:03.450Z,80
2018-09-09T09:18:44.029Z,80
2018-09-09T09:19:24.368Z,80
2018-09-09T09:20:04.707Z,80
2018-09-09T09:20:45.339Z,80
2018-09-09T09:21:25.624Z,80
2018-09-09T09:22:05.991Z,80
2018-09-09T09:22:46.388Z,80
2018-09-09T09:23:26.887Z,80
2018-09-09T09:24:07.240Z,80
2018-09-09T09:24:47.605Z,80
2018-09-09T09:25:28.043Z,80
2018-09-09T09:26:08.453Z,80
2018-09-09T09:26:48.844Z,80
2018-09-09T09:27:29.273Z,80
2018-09-09T09:28:09.674Z,80
2018-09-09T09:28:50.109Z,80
2018-09-09T09:29:30.495Z,80
2018-09-09T09:30:10.935Z,80
2018-09-09T09:30:51.482Z,80
2018-09-09T09:31:31.758Z,80
2018-09-09T09:32:12.209Z,80
2018-09-09T09:32:52.603Z,80
2018-09-09T09:33:33.181Z,75
2018-09-09T09:34:13.635Z,90
2018-09-09T09:34:54.022Z,90
2018-09-09T09:35:34.446Z,90
2018-09-09T09:36:14.918Z,90
2018-09-09T09:36:55.261Z,100
2018-09-09T09:37:35.728Z,85
2018-09-09T09:38:16.049Z,85
2018-09-09T09:38:56.497Z,90
2018-09-09T09:39:36.931Z,85
2018-09-09T09:40:17.322Z,85
2018-09-09T09:40:57.791Z,85
2018-09-09T09:41:38.200Z,80
2018-09-09T09:42:18.601Z,90
2018-09-09T09:42:59.085Z,90
2018-09-09T09:43:39.409Z,90
2018-09-09T09:44:19.881Z,90
2018-09-09T09:45:00.278Z,90
2018-09-09T09:45:40.604Z,85
2018-09-09T09:46:21.029Z,85
2018-09-09T09:47:01.513Z,80
2018-09-09T09:47:41.901Z,80
2018-09-09T09:48:22.326Z,80
2018-09-09T09:49:02.798Z,80
2018-09-09T09:49:43.152Z,80
2018-09-09T09:50:23.535Z,75
2018-09-09T09:51:04.072Z,60
2018-09-09T09:51:44.461Z,80
2018-09-09T09:52:24.869Z,80
2018-09-09T09:53:05.359Z,75
2018-09-09T09:53:45.631Z,75
2018-09-09T09:54:26.096Z,75
2018-09-09T09:55:06.527Z,75
2018-09-09T09:55:46.922Z,75
2018-09-09T09:56:27.373Z,75
2018-09-09T09:57:07.755Z,75
2018-09-09T09:57:48.112Z,75
2018-09-09T09:58:28.547Z,75
2018-09-09T09:59:09.054Z,75
2018-09-09T09:59:49.425Z,75
2018-09-09T10:00:29.846Z,75
2018-09-09T10:01:10.342Z,75
2018-09-09T10:01:50.698Z,75
2018-09-09T10:02:31.144Z,75
2018-09-09T10:03:11.512Z,75
2018-09-09T10:03:51.910Z,75
2018-09-09T10:04:32.308Z,70
2018-09-09T10:05:12.733Z,75
2018-09-09T10:05:53.193Z,75
2018-09-09T10:06:33.564Z,75
2018-09-09T10:07:13.913Z,75
2018-09-09T10:07:54.413Z,75
2018-09-09T10:08:34.805Z,75
2018-09-09T10:09:15.192Z,75
2018-09-09T10:09:55.593Z,75
2018-09-09T10:10:35.997Z,70
2018-09-09T10:11:16.423Z,75
2018-09-09T10:11:56.846Z,75
2018-09-09T10:12:37.333Z,75
2018-09-09T10:13:17.745Z,70
2018-09-09T10:13:58.121Z,70
2018-09-09T10:14:38.516Z,65
2018-09-09T10:15:18.967Z,60
2018-09-09T10:15:59.411Z,65
2018-09-09T10:16:39.900Z,70
2018-09-09T10:17:20.325Z,75
2018-09-09T10:18:00.732Z,80
2018-09-09T10:18:41.158Z,85
2018-09-09T10:19:21.560Z,90
2018-09-09T10:20:01.971Z,85
2018-09-09T10:20:42.384Z,80
2018-09-09T10:21:22.789Z,75
2018-09-09T10:22:03.294Z,85
2018-09-09T10:22:43.649Z,90
2018-09-09T10:23:24.004Z,90
2018-09-09T10:24:04.378Z,90
2018-09-09T10:24:44.831Z,95
2018-09-09T10:25:25.286Z,85
2018-09-09T10:26:05.666Z,90
2018-09-09T10:26:46.093Z,80
2018-09-09T10:27:26.483Z,75
2018-09-09T10:28:06.853Z,80
2018-09-09T10:28:47.265Z,80